createdAt,value
2022-11-15T00:00:45.092Z,29.90
2022-11-15T00:04:07.593Z,32.73
2022-11-15T00:07:53.970Z,40.83
2022-11-15T00:11:13.337Z,38.88
2022-11-15T00:14:34.946Z,29.85
2022-11-15T00:17:56.388Z,30.70
2022-11-15T00:21:19.014Z,34.63
2022-11-15T00:24:42.219Z,33.08
2022-11-15T00:28:04.480Z,22.23
2022-11-15T00:31:26.098Z,27.55
2022-11-15T00:34:47.728Z,28.08
2022-11-15T00:38:09.579Z,30.67
2022-11-15T00:41:31.360Z,30.17
2022-11-15T00:44:53.385Z,30.13
2022-11-15T00:48:15.211Z,28.48
2022-11-15T00:51:37.626Z,27.92
2022-11-15T00:54:59.478Z,27.30
2022-11-15T00:58:21.292Z,26.60
2022-11-15T01:01:42.967Z,28.65
2022-11-15T01:05:05.137Z,28.27
2022-11-15T01:08:27.171Z,27.38
2022-11-15T01:11:49.054Z,24.38
2022-11-15T01:15:11.113Z,28.30
2022-11-15T01:18:32.902Z,27.50
2022-11-15T01:21:54.841Z,27.23
2022-11-15T01:25:16.634Z,30.02
2022-11-15T01:28:41.046Z,30.65
2022-11-15T01:32:03.453Z,30.50
2022-11-15T01:35:25.317Z,34.22
2022-11-15T01:38:47.359Z,29.88
2022-11-15T01:42:14.713Z,33.97
2022-11-15T01:45:36.847Z,35.30
2022-11-15T01:49:17.976Z,34.20
2022-11-15T01:52:42.073Z,35.67
2022-11-15T01:56:06.567Z,29.83
2022-11-15T01:59:28.987Z,27.80
2022-11-15T02:02:51.549Z,26.65
2022-11-15T02:06:13.625Z,29.37
2022-11-15T02:09:38.368Z,27.20
2022-11-15T02:13:02.480Z,27.70
2022-11-15T02:16:59.002Z,29.58
2022-11-15T02:20:50.722Z,27.73
2022-11-15T02:24:27.941Z,25.58
2022-11-15T02:28:25.185Z,26.27
2022-11-15T02:31:54.325Z,27.92
2022-11-15T02:35:25.271Z,26.80
2022-11-15T02:39:08.770Z,27.97
2022-11-15T02:42:56.582Z,29.70
2022-11-15T02:46:59.185Z,27.80
2022-11-15T02:50:27.097Z,25.85
2022-11-15T02:53:48.756Z,26.43
2022-11-15T02:57:17.942Z,24.15
2022-11-15T03:01:01.651Z,24.83
2022-11-15T03:04:42.343Z,23.20
2022-11-15T03:08:18.487Z,23.17
2022-11-15T03:11:47.611Z,24.50
2022-11-15T03:15:22.472Z,26.80
2022-11-15T03:18:52.720Z,23.42
2022-11-15T03:22:19.862Z,29.15
2022-11-15T03:25:49.333Z,28.73
2022-11-15T03:29:20.602Z,27.13
2022-11-15T03:32:51.378Z,28.40
2022-11-15T03:36:13.617Z,26.73
2022-11-15T03:39:35.652Z,28.33
2022-11-15T03:43:12.430Z,34.83
2022-11-15T03:46:40.479Z,28.38
2022-11-15T03:50:15.855Z,26.63
2022-11-15T03:53:37.362Z,26.55
2022-11-15T03:56:59.310Z,29.40
2022-11-15T04:00:21.249Z,32.45
2022-11-15T04:03:43.173Z,29.05
2022-11-15T04:07:05.163Z,24.67
2022-11-15T04:10:27.428Z,28.30
2022-11-15T04:13:49.199Z,27.88
2022-11-15T04:17:11.159Z,25.13
2022-11-15T04:20:53.276Z,25.83
2022-11-15T04:24:15.015Z,23.98
2022-11-15T04:27:36.877Z,28.65
2022-11-15T04:30:59.173Z,25.25
2022-11-15T04:34:21.064Z,25.33
2022-11-15T04:37:47.898Z,20.60
2022-11-15T04:41:10.825Z,25.23
2022-11-15T04:44:32.651Z,23.67
2022-11-15T04:47:54.588Z,24.80
2022-11-15T04:51:16.381Z,23.70
2022-11-15T04:54:38.141Z,23.88
2022-11-15T04:58:04.068Z,28.15
2022-11-15T05:01:27.012Z,22.50
2022-11-15T05:04:48.767Z,23.80
2022-11-15T05:08:11.160Z,33.90
2022-11-15T05:11:33.589Z,37.88
2022-11-15T05:14:55.614Z,42.03
2022-11-15T05:18:23.080Z,38.17
2022-11-15T05:21:45.469Z,50.25
2022-11-15T05:25:08.345Z,83.15
2022-11-15T05:28:30.531Z,45.35
2022-11-15T05:31:52.750Z,52.80
2022-11-15T05:35:21.157Z,33.85
2022-11-15T05:38:43.864Z,32.40
2022-11-15T05:42:11.372Z,43.17
2022-11-15T05:45:34.662Z,41.43
2022-11-15T05:48:57.750Z,41.83
2022-11-15T05:52:25.562Z,53.30
2022-11-15T05:55:47.782Z,43.97
2022-11-15T05:59:10.231Z,48.20
2022-11-15T06:02:31.969Z,57.65
2022-11-15T06:05:53.766Z,50.35
2022-11-15T06:09:15.666Z,63.78
2022-11-15T06:12:37.461Z,90.67
2022-11-15T06:15:59.489Z,105.72
2022-11-15T06:19:21.325Z,104.53
2022-11-15T06:22:43.523Z,59.30
2022-11-15T06:26:05.649Z,50.15
2022-11-15T06:29:27.292Z,54.55
2022-11-15T06:32:49.377Z,49.45
2022-11-15T06:36:18.020Z,45.15
2022-11-15T06:39:40.468Z,63.55
2022-11-15T06:43:02.122Z,79.47
2022-11-15T06:46:23.770Z,66.10
2022-11-15T06:49:45.544Z,63.85
2022-11-15T06:53:07.588Z,70.95
2022-11-15T06:56:29.435Z,95.93
2022-11-15T06:59:51.755Z,62.57
2022-11-15T07:03:13.578Z,115.18
2022-11-15T07:06:35.440Z,63.28
2022-11-15T07:09:57.437Z,56.33
2022-11-15T07:13:19.446Z,49.00
2022-11-15T07:16:41.049Z,61.03
2022-11-15T07:20:03.193Z,58.67
2022-11-15T07:23:25.182Z,49.85
2022-11-15T07:26:47.530Z,52.05
2022-11-15T07:30:10.204Z,38.92
2022-11-15T07:33:32.462Z,52.23
2022-11-15T07:36:54.715Z,42.78
2022-11-15T07:40:16.899Z,47.80
2022-11-15T07:43:38.738Z,46.05
2022-11-15T07:47:00.789Z,45.13
2022-11-15T07:50:24.346Z,43.67
2022-11-15T07:53:46.515Z,59.73
2022-11-15T07:57:10.234Z,55.45
2022-11-15T08:00:33.008Z,58.35
2022-11-15T08:03:55.386Z,49.45
2022-11-15T08:07:17.066Z,44.60
2022-11-15T08:10:40.876Z,45.67
2022-11-15T08:14:03.148Z,43.05
2022-11-15T08:17:26.002Z,43.50
2022-11-15T08:20:49.650Z,45.65
2022-11-15T08:24:12.161Z,43.57
2022-11-15T08:27:33.967Z,38.27
2022-11-15T08:30:56.447Z,41.72
2022-11-15T08:34:18.907Z,35.22
2022-11-15T08:37:41.083Z,27.75
2022-11-15T08:41:07.181Z,33.73
2022-11-15T08:44:29.305Z,31.73
2022-11-15T08:47:54.464Z,31.17
2022-11-15T08:51:16.851Z,25.65
2022-11-15T08:54:38.445Z,22.80
2022-11-15T08:58:00.270Z,28.10
2022-11-15T09:01:24.548Z,26.10
2022-11-15T09:04:46.706Z,22.50
2022-11-15T09:08:25.563Z,23.98
2022-11-15T09:11:51.722Z,20.40
2022-11-15T09:15:13.744Z,24.20
2022-11-15T09:18:35.851Z,24.17
2022-11-15T09:21:57.978Z,21.90
2022-11-15T09:25:19.950Z,18.17
2022-11-15T09:28:42.959Z,20.10
2022-11-15T09:32:05.136Z,18.97
2022-11-15T09:35:26.794Z,19.20
2022-11-15T09:38:48.931Z,21.92
2022-11-15T09:42:33.668Z,19.48
2022-11-15T09:46:04.490Z,17.45
2022-11-15T09:49:27.016Z,16.23
2022-11-15T09:52:46.173Z,19.83
2022-11-15T09:55:56.087Z,19.15
2022-11-15T09:59:15.052Z,19.15
2022-11-15T10:02:24.949Z,20.45
2022-11-15T10:05:30.131Z,20.20
2022-11-15T10:08:45.590Z,18.03
2022-11-15T10:11:49.304Z,19.00
2022-11-15T10:15:05.464Z,17.45
2022-11-15T10:18:11.716Z,17.60
2022-11-15T10:21:30.794Z,16.00
2022-11-15T10:24:41.278Z,16.67
2022-11-15T10:27:48.431Z,17.73
2022-11-15T10:31:00.390Z,18.02
2022-11-15T10:34:17.509Z,18.98
2022-11-15T10:37:32.738Z,20.13
2022-11-15T10:40:39.675Z,17.93
2022-11-15T10:43:43.607Z,17.35
2022-11-15T10:46:49.757Z,20.35
2022-11-15T10:49:59.316Z,18.38
2022-11-15T10:53:03.926Z,18.43
2022-11-15T10:56:12.361Z,18.97
2022-11-15T10:59:28.014Z,18.30
2022-11-15T11:02:31.498Z,17.40
2022-11-15T11:05:41.273Z,19.38
2022-11-15T11:09:00.639Z,17.97
2022-11-15T11:12:06.800Z,17.23
2022-11-15T11:15:14.143Z,18.95
2022-11-15T11:18:29.746Z,20.15
2022-11-15T11:21:53.262Z,19.55
2022-11-15T11:25:14.423Z,19.40
2022-11-15T11:28:20.815Z,21.37
2022-11-15T11:31:45.038Z,19.95
2022-11-15T11:35:15.003Z,19.30
2022-11-15T11:38:27.224Z,21.73
2022-11-15T11:41:44.020Z,21.33
2022-11-15T11:45:02.527Z,23.87
2022-11-15T11:48:14.832Z,20.73
2022-11-15T11:51:32.658Z,20.50
2022-11-15T11:54:59.513Z,20.75
2022-11-15T11:58:44.702Z,17.80
2022-11-15T12:01:48.622Z,18.00
2022-11-15T12:04:56.509Z,18.88
2022-11-15T12:08:22.664Z,18.55
2022-11-15T12:11:36.197Z,19.85
2022-11-15T12:15:03.627Z,19.43
2022-11-15T12:18:11.530Z,19.70
2022-11-15T12:21:32.778Z,18.58
2022-11-15T12:24:49.510Z,19.80
2022-11-15T12:28:16.337Z,21.70
2022-11-15T12:31:40.718Z,20.13
2022-11-15T12:34:48.011Z,19.53
2022-11-15T12:37:54.922Z,19.25
2022-11-15T12:41:18.159Z,20.42
2022-11-15T12:44:37.341Z,20.48
2022-11-15T12:47:40.877Z,18.80
2022-11-15T12:50:56.667Z,18.23
2022-11-15T12:54:00.271Z,20.48
2022-11-15T12:57:09.336Z,19.98
2022-11-15T13:00:16.111Z,21.23
2022-11-15T13:03:24.491Z,20.77
2022-11-15T13:06:42.727Z,19.83
2022-11-15T13:09:49.341Z,20.95
2022-11-15T13:12:54.907Z,22.92
2022-11-15T13:16:00.716Z,25.20
2022-11-15T13:19:04.407Z,22.27
2022-11-15T13:22:30.784Z,20.10
2022-11-15T13:25:38.256Z,22.40
2022-11-15T13:28:47.570Z,20.25
2022-11-15T13:31:51.978Z,24.42
2022-11-15T13:34:55.522Z,20.83
2022-11-15T13:38:05.909Z,20.00
2022-11-15T13:41:21.532Z,20.58
2022-11-15T13:44:27.622Z,18.58
2022-11-15T13:47:32.810Z,20.60
2022-11-15T13:50:39.855Z,25.73
2022-11-15T13:53:47.606Z,26.10
2022-11-15T13:57:04.407Z,26.48
2022-11-15T14:00:25.754Z,29.13
2022-11-15T14:03:43.166Z,36.00
2022-11-15T14:06:50.168Z,44.20
2022-11-15T14:09:53.636Z,31.57
2022-11-15T14:12:56.979Z,30.38
2022-11-15T14:16:21.934Z,29.77
2022-11-15T14:19:25.426Z,32.35
2022-11-15T14:22:30.866Z,40.77
2022-11-15T14:25:36.583Z,45.67
2022-11-15T14:28:40.362Z,56.97
2022-11-15T14:31:44.192Z,65.70
2022-11-15T14:34:48.298Z,108.80
2022-11-15T14:37:51.761Z,77.03
2022-11-15T14:40:56.903Z,56.60
2022-11-15T14:44:00.414Z,60.67
2022-11-15T14:47:04.449Z,48.08
2022-11-15T14:50:08.291Z,36.50
2022-11-15T14:53:23.146Z,33.10
2022-11-15T14:56:26.759Z,52.63
2022-11-15T14:59:30.255Z,51.65
2022-11-15T15:02:33.948Z,60.85
2022-11-15T15:05:43.335Z,64.03
2022-11-15T15:08:51.438Z,67.50
2022-11-15T15:11:55.758Z,63.20
2022-11-15T15:14:59.105Z,69.47
2022-11-15T15:18:03.787Z,56.28
2022-11-15T15:21:35.330Z,53.53
2022-11-15T15:24:40.854Z,52.03
2022-11-15T15:27:44.182Z,63.60
2022-11-15T15:30:50.764Z,61.30
2022-11-15T15:33:54.172Z,72.50
2022-11-15T15:37:23.931Z,67.70
2022-11-15T15:40:29.199Z,69.13
2022-11-15T15:43:32.566Z,53.20
2022-11-15T15:46:36.437Z,59.67
2022-11-15T15:49:40.000Z,63.00
2022-11-15T15:52:43.741Z,67.53
2022-11-15T15:55:47.126Z,76.47
2022-11-15T15:58:50.576Z,69.60
2022-11-15T16:01:54.834Z,67.00
2022-11-15T16:04:58.850Z,78.32
2022-11-15T16:08:02.137Z,74.07
2022-11-15T16:11:07.320Z,59.97
2022-11-15T16:14:10.763Z,60.93
2022-11-15T16:17:19.492Z,50.30
2022-11-15T16:20:36.051Z,73.65
2022-11-15T16:23:40.409Z,95.32
2022-11-15T16:26:44.260Z,97.00
2022-11-15T16:29:48.662Z,85.57
2022-11-15T16:32:52.385Z,83.40
2022-11-15T16:35:55.891Z,110.00
2022-11-15T16:39:00.619Z,129.48
2022-11-15T16:42:04.063Z,119.27
2022-11-15T16:45:11.922Z,120.93
2022-11-15T16:48:27.200Z,109.63
2022-11-15T16:51:30.610Z,114.30
2022-11-15T16:54:34.445Z,111.45
2022-11-15T16:57:37.898Z,114.93
2022-11-15T17:00:44.345Z,104.13
2022-11-15T17:03:48.113Z,85.60
2022-11-15T17:06:51.509Z,82.10
2022-11-15T17:09:54.935Z,101.30
2022-11-15T17:12:58.625Z,120.33
2022-11-15T17:16:14.637Z,119.23
2022-11-15T17:19:21.877Z,69.10
2022-11-15T17:22:25.694Z,49.40
2022-11-15T17:25:29.060Z,64.93
2022-11-15T17:28:36.376Z,73.57
2022-11-15T17:31:39.829Z,73.80
2022-11-15T17:34:43.453Z,61.30
2022-11-15T17:37:48.373Z,59.65
2022-11-15T17:41:02.481Z,63.97
2022-11-15T17:44:05.902Z,85.83
2022-11-15T17:47:09.293Z,80.17
2022-11-15T17:50:13.170Z,100.15
2022-11-15T17:53:16.542Z,107.35
2022-11-15T17:56:22.582Z,117.07
2022-11-15T17:59:25.975Z,127.03
2022-11-15T18:02:30.303Z,112.00
2022-11-15T18:05:33.849Z,101.38
2022-11-15T18:08:38.626Z,98.85
2022-11-15T18:11:44.894Z,111.97
2022-11-15T18:14:48.354Z,130.13
2022-11-15T18:17:51.794Z,156.50
2022-11-15T18:21:23.222Z,133.18
2022-11-15T18:24:32.330Z,131.23
2022-11-15T18:27:35.826Z,121.28
2022-11-15T18:30:41.303Z,114.80
2022-11-15T18:33:45.648Z,151.97
2022-11-15T18:36:52.105Z,148.85
2022-11-15T18:39:55.702Z,122.95
2022-11-15T18:42:59.449Z,100.75
2022-11-15T18:46:04.247Z,79.10
2022-11-15T18:49:10.449Z,84.47
2022-11-15T18:52:13.862Z,92.10
2022-11-15T18:55:17.592Z,86.43
2022-11-15T18:58:21.121Z,155.65
2022-11-15T19:01:27.011Z,174.10
2022-11-15T19:04:30.720Z,187.00
2022-11-15T19:07:34.428Z,170.60
2022-11-15T19:10:40.091Z,150.35
2022-11-15T19:13:44.605Z,122.25
2022-11-15T19:16:52.622Z,85.53
2022-11-15T19:19:56.249Z,79.17
2022-11-15T19:23:00.161Z,84.10
2022-11-15T19:26:11.311Z,75.65
2022-11-15T19:29:15.065Z,68.07
2022-11-15T19:32:18.703Z,70.00
2022-11-15T19:35:22.618Z,66.50
2022-11-15T19:38:26.275Z,51.95
2022-11-15T19:41:29.722Z,55.30
2022-11-15T19:44:33.321Z,52.20
2022-11-15T19:47:36.927Z,47.20
2022-11-15T19:50:41.446Z,46.17
2022-11-15T19:53:45.092Z,49.78
2022-11-15T19:56:48.682Z,69.65
2022-11-15T19:59:52.736Z,59.08
2022-11-15T20:02:56.241Z,58.77
2022-11-15T20:06:10.209Z,52.97
2022-11-15T20:09:16.020Z,54.72
2022-11-15T20:12:19.609Z,52.83
2022-11-15T20:15:23.269Z,55.25
2022-11-15T20:18:28.093Z,70.17
2022-11-15T20:21:31.549Z,82.63
2022-11-15T20:24:35.405Z,97.32
2022-11-15T20:27:38.943Z,91.72
2022-11-15T20:30:45.101Z,108.95
2022-11-15T20:33:48.628Z,85.23
2022-11-15T20:36:52.532Z,69.37
2022-11-15T20:39:56.005Z,78.80
2022-11-15T20:42:59.500Z,72.65
2022-11-15T20:46:03.002Z,71.15
2022-11-15T20:49:07.109Z,103.80
2022-11-15T20:52:11.008Z,94.10
2022-11-15T20:55:14.635Z,74.07
2022-11-15T20:58:18.519Z,68.97
2022-11-15T21:01:24.404Z,72.75
2022-11-15T21:04:28.086Z,75.03
2022-11-15T21:07:31.510Z,80.53
2022-11-15T21:10:57.782Z,103.35
2022-11-15T21:14:04.989Z,110.80
2022-11-15T21:17:12.073Z,104.80
2022-11-15T21:20:16.360Z,97.60
2022-11-15T21:23:19.688Z,102.17
2022-11-15T21:26:23.027Z,96.50
2022-11-15T21:29:26.489Z,89.85
2022-11-15T21:32:30.127Z,93.15
2022-11-15T21:35:33.808Z,97.27
2022-11-15T21:38:37.194Z,96.43
2022-11-15T21:41:40.897Z,103.13
2022-11-15T21:44:44.231Z,113.57
2022-11-15T21:47:47.541Z,116.65
2022-11-15T21:51:00.059Z,108.97
2022-11-15T21:54:03.486Z,105.93
2022-11-15T21:57:06.801Z,92.28
2022-11-15T22:00:29.173Z,91.45
2022-11-15T22:03:32.578Z,82.28
2022-11-15T22:06:36.631Z,73.07
2022-11-15T22:09:40.425Z,79.70
2022-11-15T22:12:43.915Z,83.93
2022-11-15T22:15:47.536Z,82.07
2022-11-15T22:18:51.072Z,82.38
2022-11-15T22:21:54.494Z,75.50
2022-11-15T22:24:57.953Z,71.70
2022-11-15T22:28:01.446Z,70.30
2022-11-15T22:31:06.625Z,63.13
2022-11-15T22:34:10.505Z,62.92
2022-11-15T22:37:20.620Z,67.40
2022-11-15T22:40:24.637Z,59.53
2022-11-15T22:43:28.482Z,61.47
2022-11-15T22:46:32.076Z,54.25
2022-11-15T22:49:35.529Z,53.97
2022-11-15T22:52:39.044Z,60.07
2022-11-15T22:55:42.701Z,59.37
2022-11-15T22:58:46.262Z,55.17
2022-11-15T23:01:51.045Z,59.75
2022-11-15T23:04:54.713Z,58.80
2022-11-15T23:07:58.153Z,58.60
2022-11-15T23:11:22.990Z,55.20
2022-11-15T23:14:46.350Z,54.03
2022-11-15T23:18:09.658Z,53.00
2022-11-15T23:21:54.322Z,58.08
2022-11-15T23:25:17.673Z,57.93
2022-11-15T23:28:21.060Z,58.43
2022-11-15T23:31:43.140Z,57.40
2022-11-15T23:34:47.292Z,56.20
2022-11-15T23:37:51.008Z,61.10
2022-11-15T23:40:55.330Z,58.23
2022-11-15T23:43:58.813Z,60.73
2022-11-15T23:47:02.240Z,62.10
2022-11-15T23:50:06.056Z,59.97
2022-11-15T23:53:09.514Z,56.55
2022-11-15T23:56:17.194Z,59.40
2022-11-15T23:59:20.587Z,57.23
